createdAt,value
2018-12-21T00:01:33.262Z,6.65
2018-12-21T00:04:02.728Z,6.68
2018-12-21T00:06:32.141Z,6.67
2018-12-21T00:09:01.548Z,6.68
2018-12-21T00:11:31.011Z,6.72
2018-12-21T00:14:00.416Z,6.75
2018-12-21T00:16:29.971Z,6.75
2018-12-21T00:18:59.569Z,6.74
2018-12-21T00:21:29.077Z,6.66
2018-12-21T00:23:58.533Z,6.65
2018-12-21T00:26:27.964Z,6.67
2018-12-21T00:28:57.417Z,6.62
2018-12-21T00:31:32.079Z,6.67
2018-12-21T00:34:06.803Z,6.65
2018-12-21T00:36:41.481Z,6.68
2018-12-21T00:39:16.102Z,6.77
2018-12-21T00:41:44.654Z,6.71
2018-12-21T00:44:19.449Z,6.73
2018-12-21T00:46:54.119Z,6.83
2018-12-21T00:49:23.627Z,6.80
2018-12-21T00:51:53.056Z,6.74
2018-12-21T00:54:22.530Z,6.70
2018-12-21T00:56:53.036Z,6.71
2018-12-21T00:59:23.385Z,6.77
2018-12-21T01:01:52.903Z,6.82
2018-12-21T01:04:22.530Z,6.83
2018-12-21T01:06:52.172Z,6.79
2018-12-21T01:09:21.655Z,6.78
2018-12-21T01:11:51.218Z,6.78
2018-12-21T01:14:20.842Z,6.81
2018-12-21T01:16:50.360Z,6.78
2018-12-21T01:19:19.846Z,6.82
2018-12-21T01:21:49.463Z,6.80
2018-12-21T01:24:18.954Z,6.79
2018-12-21T01:26:48.373Z,6.76
2018-12-21T01:29:17.804Z,6.76
2018-12-21T01:31:47.234Z,6.82
2018-12-21T01:34:16.663Z,6.79
2018-12-21T01:36:46.113Z,6.76
2018-12-21T01:39:15.572Z,6.80
2018-12-21T01:41:45.048Z,6.82
2018-12-21T01:47:10.013Z,6.83
2018-12-21T01:49:39.549Z,6.79
2018-12-21T01:52:09.038Z,6.85
2018-12-21T01:54:38.461Z,6.87
2018-12-21T01:57:07.848Z,6.88
2018-12-21T01:59:37.376Z,6.87
2018-12-21T02:02:06.949Z,6.88
2018-12-21T02:04:36.337Z,6.86
2018-12-21T02:07:06.749Z,6.83
2018-12-21T02:09:36.142Z,6.85
2018-12-21T02:12:05.655Z,6.87
2018-12-21T02:14:35.192Z,6.87
2018-12-21T02:17:04.637Z,6.83
2018-12-21T02:19:35.150Z,6.88
2018-12-21T02:22:04.584Z,6.88
2018-12-21T02:27:01.709Z,6.83
2018-12-21T02:29:31.109Z,6.81
2018-12-21T02:32:00.587Z,6.85
2018-12-21T02:36:56.222Z,6.79
2018-12-21T02:39:25.613Z,6.80
2018-12-21T02:41:55.077Z,6.81
2018-12-21T02:44:24.519Z,6.85
2018-12-21T02:46:53.902Z,6.81
2018-12-21T02:49:23.323Z,6.88
2018-12-21T02:51:53.034Z,6.85
2018-12-21T02:54:22.461Z,6.81
2018-12-21T02:56:51.926Z,6.84
2018-12-21T02:59:21.372Z,6.78
2018-12-21T03:01:50.900Z,6.78
2018-12-21T03:04:20.329Z,6.73
2018-12-21T03:06:49.806Z,6.86
2018-12-21T03:09:19.233Z,6.71
2018-12-21T03:14:45.180Z,6.67
2018-12-21T03:17:14.784Z,6.60
2018-12-21T03:19:44.219Z,6.78
2018-12-21T03:22:15.036Z,6.77
2018-12-21T03:24:44.742Z,6.83
2018-12-21T03:27:14.194Z,6.79
2018-12-21T03:29:43.620Z,6.79
2018-12-21T03:32:13.026Z,6.79
2018-12-21T03:34:42.524Z,6.71
2018-12-21T03:37:12.066Z,6.70
2018-12-21T03:39:41.491Z,6.66
2018-12-21T03:42:10.916Z,6.65
2018-12-21T03:44:40.666Z,6.77
2018-12-21T03:47:10.102Z,6.82
2018-12-21T03:49:39.509Z,6.72
2018-12-21T03:52:10.098Z,6.71
2018-12-21T03:54:39.510Z,6.79
2018-12-21T03:57:09.158Z,6.73
2018-12-21T03:59:38.591Z,6.67
2018-12-21T04:02:07.981Z,6.63
2018-12-21T04:04:38.664Z,6.63
2018-12-21T04:07:08.074Z,6.63
2018-12-21T04:12:34.979Z,6.55
2018-12-21T04:15:04.971Z,6.54
2018-12-21T04:17:34.530Z,6.55
2018-12-21T04:20:04.239Z,6.53
2018-12-21T04:22:34.260Z,6.61
2018-12-21T04:25:04.157Z,6.58
2018-12-21T04:27:33.617Z,6.61
2018-12-21T04:33:08.426Z,6.51
2018-12-21T04:35:37.825Z,6.46
2018-12-21T04:38:07.315Z,6.47
2018-12-21T04:40:36.820Z,6.44
2018-12-21T04:43:06.213Z,6.45
2018-12-21T04:45:35.646Z,6.37
2018-12-21T04:48:05.314Z,6.29
2018-12-21T04:50:34.834Z,6.24
2018-12-21T04:53:04.365Z,6.25
2018-12-21T04:55:34.797Z,6.24
2018-12-21T04:58:04.404Z,6.19
2018-12-21T05:00:33.818Z,6.19
2018-12-21T05:03:06.997Z,6.21
2018-12-21T05:05:36.349Z,6.17
2018-12-21T05:08:05.742Z,6.21
2018-12-21T05:10:35.787Z,6.26
2018-12-21T05:13:05.463Z,6.24
2018-12-21T05:15:34.886Z,6.22
2018-12-21T05:18:05.013Z,6.27
2018-12-21T05:20:34.471Z,6.35
2018-12-21T05:23:03.982Z,6.30
2018-12-21T05:25:33.372Z,6.31
2018-12-21T05:28:02.864Z,6.27
2018-12-21T05:30:32.248Z,6.28
2018-12-21T05:33:02.480Z,6.34
2018-12-21T05:35:31.858Z,6.25
2018-12-21T05:38:01.206Z,6.26
2018-12-21T05:40:30.755Z,6.25
2018-12-21T05:43:00.153Z,6.34
2018-12-21T05:45:29.549Z,6.30
2018-12-21T05:47:58.985Z,6.35
2018-12-21T05:50:28.388Z,6.29
2018-12-21T05:53:00.902Z,6.28
2018-12-21T05:55:29.231Z,6.40
2018-12-21T05:57:58.574Z,6.31
2018-12-21T06:00:27.945Z,6.26
2018-12-21T06:02:57.384Z,6.22
2018-12-21T06:05:26.781Z,6.22
2018-12-21T06:07:56.266Z,6.34
2018-12-21T06:10:25.678Z,6.43
2018-12-21T06:12:55.034Z,6.31
2018-12-21T06:15:24.433Z,6.27
2018-12-21T06:17:53.867Z,6.18
2018-12-21T06:20:23.286Z,6.21
2018-12-21T06:22:52.654Z,6.25
2018-12-21T06:25:22.115Z,6.26
2018-12-21T06:27:51.530Z,6.22
2018-12-21T06:30:20.900Z,6.27
2018-12-21T06:32:50.293Z,6.29
2018-12-21T06:35:19.643Z,6.24
2018-12-21T06:37:49.054Z,6.22
2018-12-21T06:40:19.336Z,6.24
2018-12-21T06:42:50.729Z,6.24
2018-12-21T06:45:20.117Z,6.24
2018-12-21T06:47:49.509Z,6.29
2018-12-21T06:50:18.876Z,6.30
2018-12-21T06:52:48.364Z,6.34
2018-12-21T06:55:17.772Z,6.31
2018-12-21T06:57:47.109Z,6.34
2018-12-21T07:00:16.848Z,6.28
2018-12-21T07:02:46.204Z,6.26
2018-12-21T07:05:15.560Z,6.28
2018-12-21T07:07:44.985Z,6.23
2018-12-21T07:10:14.365Z,6.29
2018-12-21T07:12:43.753Z,6.35
2018-12-21T07:15:13.385Z,6.28
2018-12-21T07:17:42.841Z,6.27
2018-12-21T07:20:12.294Z,6.24
2018-12-21T07:22:41.725Z,6.39
2018-12-21T07:25:11.077Z,6.38
2018-12-21T07:27:40.433Z,6.36
2018-12-21T07:30:12.492Z,6.53
2018-12-21T07:32:42.015Z,6.39
2018-12-21T07:35:15.997Z,6.32
2018-12-21T07:37:45.411Z,6.33
2018-12-21T07:40:15.041Z,6.41
2018-12-21T07:42:44.421Z,6.33
2018-12-21T07:45:13.990Z,6.35
2018-12-21T07:47:43.385Z,6.36
2018-12-21T07:50:12.965Z,6.30
2018-12-21T07:52:42.365Z,6.29
2018-12-21T07:55:11.903Z,6.30
2018-12-21T07:57:41.277Z,6.29
2018-12-21T08:00:12.661Z,6.42
2018-12-21T08:02:42.046Z,6.36
2018-12-21T08:05:11.437Z,6.36
2018-12-21T08:07:40.858Z,6.41
2018-12-21T08:10:18.608Z,6.36
2018-12-21T08:12:48.021Z,6.32
2018-12-21T08:15:17.453Z,6.37
2018-12-21T08:17:47.396Z,6.35
2018-12-21T08:20:17.183Z,6.29
2018-12-21T08:22:46.516Z,6.33
2018-12-21T08:25:16.019Z,6.33
2018-12-21T08:27:45.537Z,6.31
2018-12-21T08:30:14.917Z,6.31
2018-12-21T08:32:44.362Z,6.37
2018-12-21T08:35:13.730Z,6.37
2018-12-21T08:37:43.107Z,6.32
2018-12-21T08:40:12.615Z,6.30
2018-12-21T08:42:42.005Z,6.29
2018-12-21T08:45:11.663Z,6.29
2018-12-21T08:47:41.094Z,6.32
2018-12-21T08:50:12.476Z,6.32
2018-12-21T08:55:47.921Z,6.23
2018-12-21T08:58:17.313Z,6.31
2018-12-21T09:00:46.822Z,6.29
2018-12-21T09:03:16.247Z,6.36
2018-12-21T09:05:45.613Z,6.31
2018-12-21T09:08:15.003Z,6.33
2018-12-21T09:10:44.484Z,6.39
2018-12-21T09:13:14.009Z,6.36
2018-12-21T09:15:43.421Z,6.40
2018-12-21T09:18:12.954Z,6.44
2018-12-21T09:20:42.428Z,6.44
2018-12-21T09:23:11.874Z,6.43
2018-12-21T09:25:41.375Z,6.45
2018-12-21T09:28:10.797Z,6.46
2018-12-21T09:30:40.148Z,6.46
2018-12-21T09:33:09.589Z,6.54
2018-12-21T09:35:39.042Z,6.58
2018-12-21T09:38:08.402Z,6.57
2018-12-21T09:40:38.184Z,6.55
2018-12-21T09:46:03.272Z,6.49
2018-12-21T09:48:32.617Z,6.48
2018-12-21T09:51:01.993Z,6.52
2018-12-21T09:53:31.406Z,6.53
2018-12-21T09:56:00.768Z,6.55
2018-12-21T09:58:30.139Z,6.53
2018-12-21T10:00:59.618Z,6.48
2018-12-21T10:03:29.182Z,6.57
2018-12-21T10:05:58.781Z,6.54
2018-12-21T10:08:28.164Z,6.62
2018-12-21T10:10:57.613Z,6.67
2018-12-21T10:13:27.049Z,6.56
2018-12-21T10:15:56.488Z,6.59
2018-12-21T10:18:25.920Z,6.65
2018-12-21T10:20:55.356Z,6.70
2018-12-21T10:23:24.832Z,6.64
2018-12-21T10:25:54.240Z,6.73
2018-12-21T10:28:23.598Z,6.79
2018-12-21T10:30:52.997Z,6.79
2018-12-21T10:33:22.418Z,6.84
2018-12-21T10:35:51.758Z,6.81
2018-12-21T10:38:21.149Z,6.76
2018-12-21T10:40:50.519Z,6.77
2018-12-21T10:43:19.879Z,6.81
2018-12-21T10:45:49.351Z,6.76
2018-12-21T10:48:18.772Z,6.76
2018-12-21T10:50:48.218Z,6.89
2018-12-21T10:53:17.742Z,6.82
2018-12-21T10:55:47.359Z,6.79
2018-12-21T10:58:16.772Z,6.78
2018-12-21T11:00:46.159Z,6.77
2018-12-21T11:03:15.698Z,6.78
2018-12-21T11:05:45.230Z,6.79
2018-12-21T11:08:14.603Z,6.72
2018-12-21T11:10:45.873Z,6.74
2018-12-21T11:13:15.452Z,6.82
2018-12-21T11:15:45.672Z,6.77
2018-12-21T11:18:15.075Z,6.76
2018-12-21T11:20:44.425Z,6.80
2018-12-21T11:23:14.030Z,6.76
2018-12-21T11:25:43.662Z,6.82
2018-12-21T11:28:13.104Z,6.77
2018-12-21T11:30:42.460Z,6.73
2018-12-21T11:33:11.849Z,6.70
2018-12-21T11:35:41.212Z,6.74
2018-12-21T11:38:10.591Z,6.73
2018-12-21T11:40:39.997Z,6.75
2018-12-21T11:43:09.439Z,6.71
2018-12-21T11:45:38.849Z,6.74
2018-12-21T11:48:08.399Z,6.72
2018-12-21T11:50:37.761Z,6.76
2018-12-21T11:53:07.227Z,6.69
2018-12-21T11:55:36.635Z,6.75
2018-12-21T11:58:06.066Z,6.72
2018-12-21T12:00:35.449Z,6.79
2018-12-21T12:03:04.953Z,6.76
2018-12-21T12:05:34.377Z,6.73
2018-12-21T12:08:03.832Z,6.77
2018-12-21T12:10:33.185Z,6.69
2018-12-21T12:13:02.559Z,6.71
2018-12-21T12:15:32.050Z,6.74
2018-12-21T12:18:01.399Z,6.75
2018-12-21T12:20:30.774Z,6.84
2018-12-21T12:23:00.232Z,6.79
2018-12-21T12:28:45.199Z,6.80
2018-12-21T12:31:14.734Z,6.89
2018-12-21T12:33:44.800Z,6.76
2018-12-21T12:36:14.965Z,6.88
2018-12-21T12:42:13.317Z,6.85
2018-12-21T12:44:43.168Z,6.85
2018-12-21T12:47:12.865Z,6.82
2018-12-21T12:53:03.712Z,6.80
2018-12-21T12:55:39.673Z,6.77
2018-12-21T12:58:19.651Z,6.79
2018-12-21T13:01:03.056Z,6.77
2018-12-21T13:03:39.500Z,6.83
2018-12-21T13:06:20.131Z,6.75
2018-12-21T13:12:15.516Z,6.85
2018-12-21T13:21:14.414Z,6.66
2018-12-21T13:23:44.152Z,6.71
2018-12-21T13:26:15.699Z,6.74
2018-12-21T13:28:48.784Z,6.73
2018-12-21T13:31:43.182Z,6.67
2018-12-21T13:37:32.350Z,6.71
2018-12-21T14:02:16.645Z,6.50
2018-12-21T14:04:46.141Z,6.53
2018-12-21T14:07:15.658Z,6.49
2018-12-21T14:25:07.450Z,6.74
2018-12-21T14:27:42.548Z,6.70
2018-12-21T14:33:17.350Z,6.57
2018-12-21T14:35:46.812Z,6.50
2018-12-21T14:38:16.325Z,6.56
2018-12-21T14:40:45.814Z,6.56
2018-12-21T14:43:15.258Z,6.55
2018-12-21T14:46:09.528Z,6.60
2018-12-21T14:48:52.016Z,6.58
2018-12-21T14:54:27.541Z,6.64
2018-12-21T14:57:03.842Z,6.57
2018-12-21T14:59:34.336Z,6.60
2018-12-21T15:02:03.907Z,6.59
2018-12-21T15:25:52.097Z,6.65
2018-12-21T16:23:55.865Z,6.85
2018-12-21T16:45:15.838Z,7.00
2018-12-21T16:48:47.383Z,7.04
2018-12-21T16:51:25.052Z,7.16
2018-12-21T16:54:00.298Z,7.15
2018-12-21T17:00:43.087Z,7.26
2018-12-21T17:03:21.034Z,7.33
2018-12-21T17:10:22.666Z,7.52
2018-12-21T17:13:04.228Z,7.65
2018-12-21T17:19:27.461Z,7.68
2018-12-21T17:22:01.481Z,7.74
2018-12-21T17:24:43.352Z,7.88
2018-12-21T17:27:19.099Z,7.94
2018-12-21T17:29:54.290Z,8.06
2018-12-21T18:19:39.342Z,9.65
2018-12-21T18:22:15.529Z,9.72
2018-12-21T18:25:00.353Z,9.80
2018-12-21T19:12:15.609Z,9.67
2018-12-21T19:14:45.597Z,9.61
2018-12-21T19:17:15.253Z,9.57
2018-12-21T20:13:40.913Z,9.00
2018-12-21T20:16:18.085Z,9.02
2018-12-21T21:03:10.329Z,8.07
2018-12-21T21:12:15.024Z,7.94
2018-12-21T21:14:44.473Z,7.88
2018-12-21T21:17:13.943Z,7.85
2018-12-21T21:19:43.396Z,7.78
2018-12-21T21:22:12.839Z,7.74
2018-12-21T21:24:42.298Z,7.71
2018-12-21T21:27:11.797Z,7.67
2018-12-21T21:29:41.701Z,7.62
2018-12-21T21:32:12.278Z,7.59
